Time;durP1;ratioP1;P1;durP2;ratioP2;P2;SDS_P1;SDS_P2;PMS_P1;PMS_P2;Temp;Humidity;BMP_temperature;BMP_pressure;BME280_temperature;BME280_humidity;BME280_pressure;Samples;Min_cycle;Max_cycle;Signal;HPM_P1;HPM_P2
2023/10/07 00:02:50;;;;;;;;;30.67;25.67;;;;;17.19;56.94;102197.50;5035063;28;45315;-42
2023/10/07 00:05:16;;;;;;;;;34.67;25.33;;;;;17.20;56.98;102207.28;5035445;28;46208;-42
2023/10/07 00:07:44;;;;;;;;;33.33;27.67;;;;;17.08;57.22;102190.53;5035774;28;45908;-41
2023/10/07 00:10:14;;;;;;;;;31.33;27.00;;;;;17.16;57.09;102200.53;5035724;28;45351;-42
2023/10/07 00:12:40;;;;;;;;;29.00;24.33;;;;;17.20;57.39;102218.03;5036012;28;45448;-43
2023/10/07 00:15:11;;;;;;;;;31.00;26.33;;;;;17.20;57.45;102218.03;5035632;28;45377;-40
2023/10/07 00:17:42;;;;;;;;;31.33;25.33;;;;;17.19;57.52;102217.19;5035479;28;45339;-40
2023/10/07 00:20:10;;;;;;;;;31.67;27.67;;;;;17.04;57.65;102191.84;5035412;27;45312;-40
2023/10/07 00:22:40;;;;;;;;;26.33;26.33;;;;;17.17;57.68;102216.50;5035904;28;45205;-42
2023/10/07 00:25:07;;;;;;;;;27.67;25.00;;;;;17.15;57.51;102215.81;5034859;28;46471;-42
2023/10/07 00:27:38;;;;;;;;;25.67;22.33;;;;;17.15;57.37;102217.63;5035259;28;45469;-41
2023/10/07 00:30:16;;;;;;;;;23.67;20.67;;;;;17.16;56.89;102222.88;5035576;28;45256;-41
2023/10/07 00:32:50;;;;;;;;;28.33;20.67;;;;;17.14;56.70;102207.88;5035514;28;45358;-41
2023/10/07 00:35:20;;;;;;;;;22.33;18.00;;;;;17.14;56.20;102202.50;5035221;28;46236;-41
2023/10/07 00:37:46;;;;;;;;;23.33;18.67;;;;;17.11;56.31;102200.16;5035033;27;45409;-41
2023/10/07 00:40:26;;;;;;;;;20.00;18.33;;;;;17.00;56.21;102182.38;5035452;28;45417;-40
2023/10/07 00:42:52;;;;;;;;;15.67;15.00;;;;;17.12;56.23;102199.97;5035617;28;45365;-40
2023/10/07 00:45:20;;;;;;;;;19.33;14.33;;;;;17.12;56.20;102199.13;5035137;28;47129;-41
2023/10/07 00:47:49;;;;;;;;;18.33;14.67;;;;;17.13;56.01;102208.88;5035003;28;45402;-42
2023/10/07 00:50:17;;;;;;;;;19.33;14.67;;;;;17.14;55.48;102205.19;5035214;28;45251;-42
2023/10/07 00:55:28;;;;;;;;;22.33;20.33;;;;;17.10;55.90;102193.06;5035106;28;45475;-40
2023/10/07 00:58:03;;;;;;;;;19.00;16.67;;;;;17.09;55.96;102197.59;5035072;28;45233;-41
2023/10/07 01:00:40;;;;;;;;;17.00;14.67;;;;;17.12;56.24;102205.34;5035283;28;45377;-44
2023/10/07 01:03:55;;;;;;;;;18.67;16.33;;;;;17.12;56.23;102202.66;5035176;28;45376;-42
2023/10/07 01:08:29;;;;;;;;;19.67;15.33;;;;;17.07;56.42;102199.59;5035142;28;45511;-41
2023/10/07 01:11:06;;;;;;;;;18.33;16.67;;;;;17.04;56.39;102193.69;5035842;27;45181;-41
2023/10/07 01:13:35;;;;;;;;;19.00;16.67;;;;;17.00;56.61;102185.06;5035157;28;45472;-42
2023/10/07 01:16:06;;;;;;;;;24.67;18.00;;;;;16.99;56.78;102180.69;5034790;28;47177;-41
2023/10/07 01:18:38;;;;;;;;;22.67;19.00;;;;;16.94;56.82;102174.94;5034771;28;45280;-41
2023/10/07 01:21:14;;;;;;;;;24.00;20.33;;;;;16.84;56.69;102160.72;5034805;28;45463;-42
2023/10/07 01:23:40;;;;;;;;;21.67;19.33;;;;;16.92;56.79;102176.94;5034962;28;45422;-41
2023/10/07 01:26:15;;;;;;;;;23.00;18.33;;;;;16.88;56.96;102181.75;5034820;28;45820;-43
2023/10/07 01:28:41;;;;;;;;;20.67;20.00;;;;;16.83;57.20;102177.84;5034727;28;45431;-41
2023/10/07 01:31:07;;;;;;;;;20.67;20.67;;;;;16.63;57.38;102147.53;5034987;28;45378;-41
2023/10/07 01:33:48;;;;;;;;;23.00;20.33;;;;;16.70;58.16;102162.91;5034900;28;45481;-42
2023/10/07 01:36:20;;;;;;;;;30.33;23.00;;;;;16.58;57.72;102164.13;5034842;28;45262;-42
2023/10/07 01:38:51;;;;;;;;;20.33;19.00;;;;;16.43;58.34;102144.13;5034620;28;45284;-40
2023/10/07 01:41:19;;;;;;;;;25.67;22.00;;;;;16.47;58.67;102156.28;5034535;28;45330;-43
2023/10/07 01:44:00;;;;;;;;;25.33;23.33;;;;;16.38;58.89;102146.44;5034868;28;45378;-41
2023/10/07 01:46:32;;;;;;;;;34.33;25.00;;;;;16.23;59.63;102137.22;5034483;28;46735;-42
2023/10/07 01:49:11;;;;;;;;;24.33;23.00;;;;;16.21;59.79;102146.25;5034216;28;45229;-42
2023/10/07 01:51:44;;;;;;;;;30.67;24.67;;;;;16.10;59.65;102133.03;5034643;28;45468;-42
2023/10/07 01:54:11;;;;;;;;;32.67;24.00;;;;;16.17;60.37;102146.69;5017454;28;45413;-41
2023/10/07 01:56:38;;;;;;;;;20.00;19.33;;;;;16.11;60.38;102149.97;5034173;28;45331;-41
2023/10/07 02:01:42;;;;;;;;;22.00;20.00;;;;;16.10;60.53;102141.09;5034514;28;45354;-44
2023/10/07 02:04:18;;;;;;;;;25.33;21.33;;;;;16.10;60.33;102145.63;5034467;27;45460;-42
2023/10/07 02:06:54;;;;;;;;;25.67;21.33;;;;;16.13;60.60;102154.19;5034165;28;46066;-41
2023/10/07 02:09:25;;;;;;;;;32.00;24.00;;;;;16.14;59.89;102155.91;5034355;28;45197;-42
2023/10/07 02:12:01;;;;;;;;;27.33;22.67;;;;;16.17;60.23;102171.69;5034459;28;45214;-43
2023/10/07 02:14:27;;;;;;;;;23.67;19.67;;;;;16.14;60.14;102155.91;5035295;27;45386;-42
2023/10/07 02:16:54;;;;;;;;;24.00;20.67;;;;;16.17;60.33;102170.84;5033622;28;46179;-42
2023/10/07 02:19:29;;;;;;;;;22.00;20.67;;;;;16.14;60.16;102172.00;5033969;28;45408;-40
2023/10/07 02:22:03;;;;;;;;;27.00;20.00;;;;;16.18;60.00;102176.09;5034136;28;45227;-41
2023/10/07 02:24:33;;;;;;;;;24.67;21.67;;;;;16.04;60.07;102159.63;5033819;28;45230;-43
2023/10/07 02:27:16;;;;;;;;;25.33;21.00;;;;;16.16;60.07;102182.59;5033452;28;47231;-42
2023/10/07 02:29:43;;;;;;;;;22.33;18.00;;;;;16.17;60.32;102185.13;5033628;28;45410;-42
2023/10/07 02:32:14;;;;;;;;;26.67;23.33;;;;;16.15;60.65;102181.75;5034147;28;45303;-41
2023/10/07 02:34:51;;;;;;;;;22.00;21.00;;;;;16.20;60.58;102192.03;5033878;28;45276;-42
2023/10/07 02:37:18;;;;;;;;;25.33;20.33;;;;;16.21;60.49;102189.19;5033607;28;46165;-43
2023/10/07 02:39:46;;;;;;;;;24.33;21.33;;;;;16.24;60.22;102184.53;5033678;28;45426;-41
2023/10/07 02:42:21;;;;;;;;;29.33;18.67;;;;;16.20;60.26;102170.56;5033842;28;45379;-40
2023/10/07 02:47:37;;;;;;;;;20.00;18.67;;;;;16.25;60.28;102189.75;5033277;28;45402;-42
2023/10/07 02:50:07;;;;;;;;;29.00;21.00;;;;;16.24;60.39;102179.16;5033616;28;45285;-41
2023/10/07 02:52:36;;;;;;;;;23.00;21.67;;;;;16.24;59.81;102174.66;5033548;28;45249;-41
2023/10/07 02:57:45;;;;;;;;;22.00;22.00;;;;;16.20;60.16;102176.78;5033314;28;45466;-42
2023/10/07 03:00:35;;;;;;;;;31.00;23.00;;;;;16.13;60.38;102178.34;5015492;28;45377;-41
2023/10/07 03:06:08;;;;;;;;;26.67;22.67;;;;;16.03;60.50;102168.66;5054491;28;45485;-42
2023/10/07 03:08:48;;;;;;;;;24.00;22.67;;;;;15.96;60.43;102171.91;5054167;28;46125;-42
2023/10/07 03:11:23;;;;;;;;;28.33;24.67;;;;;15.92;60.46;102169.69;5053921;28;45349;-41
2023/10/07 03:13:50;;;;;;;;;30.00;25.00;;;;;15.82;60.99;102167.03;5054053;28;45379;-43
2023/10/07 03:18:48;;;;;;;;;26.33;20.33;;;;;15.83;60.61;102181.31;5053727;28;45376;-42
2023/10/07 03:21:15;;;;;;;;;25.00;21.00;;;;;15.82;60.94;102185.81;5053650;28;45973;-42
2023/10/07 03:23:58;;;;;;;;;28.33;24.33;;;;;15.68;61.07;102165.69;5053987;28;45569;-42
2023/10/07 03:26:24;;;;;;;;;22.67;18.67;;;;;15.75;61.58;102183.88;5054071;28;45355;-42
2023/10/07 03:28:55;;;;;;;;;28.33;21.33;;;;;15.74;61.43;102190.22;5053719;28;46202;-41
2023/10/07 03:31:33;;;;;;;;;27.33;22.67;;;;;15.73;61.42;102189.38;5053921;28;45522;-41
2023/10/07 03:33:59;;;;;;;;;26.00;22.67;;;;;15.66;61.73;102181.06;5053885;28;45495;-39
2023/10/07 03:36:31;;;;;;;;;28.33;26.67;;;;;15.70;61.64;102184.31;5047994;28;45416;-41
2023/10/07 03:41:55;;;;;;;;;28.33;24.00;;;;;15.64;61.70;102184.88;5035741;28;45217;-42
2023/10/07 03:44:22;;;;;;;;;24.00;23.00;;;;;15.53;61.79;102174.28;5036039;28;45467;-42
2023/10/07 03:46:55;;;;;;;;;23.00;19.00;;;;;15.60;62.09;102186.16;5036115;28;45269;-41
2023/10/07 03:49:22;;;;;;;;;25.00;20.00;;;;;15.62;61.67;102197.56;5035592;28;46059;-39
2023/10/07 03:51:48;;;;;;;;;23.00;20.00;;;;;15.62;61.90;102195.72;5035921;28;45338;-41
2023/10/07 03:54:35;;;;;;;;;24.33;20.67;;;;;15.58;61.91;102188.94;5035945;28;45323;-40
2023/10/07 03:57:00;;;;;;;;;30.33;23.33;;;;;15.48;62.24;102185.44;5035972;28;45618;-42
2023/10/07 03:59:34;;;;;;;;;22.33;21.67;;;;;15.51;62.44;102189.69;5035812;28;45489;-43
2023/10/07 04:02:00;;;;;;;;;24.00;20.67;;;;;15.52;62.22;102192.22;5035880;28;45218;-44
2023/10/07 04:04:26;;;;;;;;;26.00;19.67;;;;;15.51;62.10;102190.53;5035577;28;45343;-41
2023/10/07 04:06:52;;;;;;;;;24.00;15.33;;;;;15.51;62.06;102190.53;5036132;28;45349;-44
2023/10/07 04:09:19;;;;;;;;;28.33;21.33;;;;;15.45;62.28;102189.25;5035742;28;47054;-42
2023/10/07 04:11:50;;;;;;;;;27.33;21.00;;;;;15.42;62.45;102192.25;5035593;28;45551;-42
2023/10/07 04:14:19;;;;;;;;;25.33;21.33;;;;;15.37;62.55;102181.06;5035772;28;45654;-42
2023/10/07 04:16:52;;;;;;;;;24.33;20.00;;;;;15.42;62.37;102197.59;5035988;28;45383;-43
2023/10/07 04:21:45;;;;;;;;;25.67;21.00;;;;;15.43;62.22;102185.03;5035162;28;45378;-43
2023/10/07 04:24:11;;;;;;;;;22.67;15.33;;;;;15.45;62.41;102194.63;5035538;28;45405;-42
2023/10/07 04:26:51;;;;;;;;;27.33;21.33;;;;;15.43;61.82;102187.72;5035600;28;45339;-41
2023/10/07 04:29:17;;;;;;;;;19.33;16.67;;;;;15.40;62.27;102185.31;5035131;28;47177;-41
2023/10/07 04:31:47;;;;;;;;;22.00;20.00;;;;;15.37;62.25;102189.13;5035330;28;45727;-42
2023/10/07 04:34:15;;;;;;;;;26.00;18.33;;;;;15.18;62.68;102157.81;5035420;28;45520;-41
2023/10/07 04:39:28;;;;;;;;;20.00;15.33;;;;;15.30;62.81;102190.69;5035535;28;45444;-41
2023/10/07 04:41:59;;;;;;;;;21.00;19.33;;;;;15.25;62.87;102182.22;5035583;28;45409;-42
2023/10/07 04:50:06;;;;;;;;;23.33;17.00;;;;;15.13;63.05;102181.53;5034353;28;45820;-43
2023/10/07 04:52:32;;;;;;;;;21.33;15.67;;;;;15.11;62.59;102182.66;5034903;28;45314;-41
2023/10/07 04:54:59;;;;;;;;;23.33;17.33;;;;;15.07;62.94;102191.97;5035301;28;45399;-41
2023/10/07 04:58:25;;;;;;;;;18.00;18.00;;;;;15.03;62.68;102195.91;5035215;28;45358;-42
2023/10/07 05:03:08;;;;;;;;;26.00;24.33;;;;;14.92;63.57;102189.72;5034929;28;45353;-43
2023/10/07 05:05:33;;;;;;;;;25.00;18.00;;;;;14.92;63.33;102196.91;5034922;28;45425;-41
2023/10/07 05:08:10;;;;;;;;;22.67;18.00;;;;;14.88;63.54;102190.97;5035206;28;45368;-41
2023/10/07 05:10:41;;;;;;;;;23.33;18.67;;;;;14.85;63.36;102188.56;5034745;28;46381;-43
2023/10/07 05:13:07;;;;;;;;;23.33;15.00;;;;;14.84;63.61;102194.06;5034871;28;45291;-42
2023/10/07 05:15:38;;;;;;;;;20.33;18.00;;;;;14.79;63.32;102194.50;5035026;28;45286;-42
2023/10/07 05:18:04;;;;;;;;;17.00;14.33;;;;;14.75;63.69;102192.19;5035120;28;45433;-44
2023/10/07 05:20:32;;;;;;;;;17.00;17.00;;;;;14.73;63.84;102200.38;5034244;28;45411;-43
2023/10/07 05:23:02;;;;;;;;;23.00;16.33;;;;;14.71;63.54;102194.34;5034661;28;45210;-41
2023/10/07 05:25:28;;;;;;;;;25.33;20.33;;;;;14.74;63.96;102199.41;5034817;28;45371;-43
2023/10/07 05:27:55;;;;;;;;;19.67;15.33;;;;;14.78;63.63;102202.66;5035156;28;45387;-43
2023/10/07 05:30:22;;;;;;;;;18.67;18.00;;;;;14.63;63.47;102176.28;5034887;28;47227;-42
2023/10/07 05:32:47;;;;;;;;;18.67;16.33;;;;;14.70;63.09;102187.25;5034538;27;45268;-41
2023/10/07 05:35:18;;;;;;;;;30.00;26.67;;;;;14.75;63.38;102208.28;5034755;28;45226;-41
2023/10/07 05:37:47;;;;;;;;;18.00;15.00;;;;;14.69;63.46;102191.78;5034958;28;45369;-40
2023/10/07 05:40:14;;;;;;;;;17.33;16.00;;;;;14.73;63.34;102195.03;5034534;28;46121;-43
2023/10/07 05:42:40;;;;;;;;;21.00;13.00;;;;;14.66;63.66;102189.41;5034658;28;45347;-43
2023/10/07 05:45:08;;;;;;;;;12.33;12.33;;;;;14.63;64.07;102200.38;5034621;28;45490;-43
2023/10/07 05:47:34;;;;;;;;;17.67;15.33;;;;;14.59;63.93;102198.97;5034894;28;45445;-41
2023/10/07 05:50:00;;;;;;;;;15.67;13.33;;;;;14.58;64.18;102196.41;5034440;28;46060;-41
2023/10/07 05:52:26;;;;;;;;;23.00;16.67;;;;;14.54;64.08;102198.53;5016821;28;45318;-41
2023/10/07 05:54:53;;;;;;;;;21.00;12.67;;;;;14.42;64.10;102176.34;5034624;28;45295;-41
2023/10/07 05:57:18;;;;;;;;;18.00;15.00;;;;;14.53;63.91;102194.13;5035125;28;45870;-41
2023/10/07 05:59:43;;;;;;;;;20.33;17.00;;;;;14.54;63.67;102200.34;5033563;28;46021;-41
2023/10/07 06:02:14;;;;;;;;;20.67;15.67;;;;;14.54;63.88;102200.34;5034274;28;45384;-42
2023/10/07 06:04:41;;;;;;;;;21.50;16.00;;;;;14.53;63.75;102198.66;5034261;28;45212;-41
2023/10/07 06:07:06;;;;;;;;;18.33;15.00;;;;;14.55;63.63;102202.91;5016873;28;45330;-40
2023/10/07 06:09:32;;;;;;;;;14.67;13.00;;;;;14.53;64.05;102199.50;5034274;28;46129;-41
2023/10/07 06:11:59;;;;;;;;;19.67;17.33;;;;;14.51;64.10;102201.47;5034316;28;46786;-40
2023/10/07 06:14:24;;;;;;;;;20.67;14.33;;;;;14.47;64.02;102195.50;5034520;28;45370;-40
2023/10/07 06:16:52;;;;;;;;;19.00;15.00;;;;;14.46;64.29;102187.63;5034326;28;45342;-41
2023/10/07 06:19:18;;;;;;;;;19.33;16.00;;;;;14.47;64.27;102202.69;5033961;27;45477;-40
2023/10/07 06:21:52;;;;;;;;;23.67;17.67;;;;;14.46;64.32;102204.53;5033616;27;45641;-41
2023/10/07 06:24:21;;;;;;;;;15.00;13.67;;;;;14.50;64.39;102198.94;5034135;28;45519;-42
2023/10/07 06:26:48;;;;;;;;;16.33;15.00;;;;;14.55;64.20;102208.25;5016376;28;45898;-41
2023/10/07 06:29:18;;;;;;;;;20.67;16.33;;;;;14.38;64.34;102188.31;5033936;28;45327;-40
2023/10/07 06:31:55;;;;;;;;;15.67;12.33;;;;;14.50;64.24;102205.16;5033941;28;45311;-40
2023/10/07 06:34:25;;;;;;;;;24.00;15.33;;;;;14.54;64.24;102214.59;5033850;28;45375;-41
2023/10/07 06:36:52;;;;;;;;;17.33;16.00;;;;;14.56;64.42;102215.28;5034316;28;45444;-42
2023/10/07 06:39:19;;;;;;;;;19.67;14.00;;;;;14.61;64.24;102218.41;5033855;28;46280;-41
2023/10/07 06:41:44;;;;;;;;;16.00;13.00;;;;;14.60;64.38;102223.91;5033538;28;45289;-40
2023/10/07 06:44:10;;;;;;;;;21.67;18.33;;;;;14.59;64.72;102220.38;5033869;28;45416;-40
2023/10/07 06:46:42;;;;;;;;;15.00;14.00;;;;;14.64;64.29;102212.78;5034120;28;45277;-40
2023/10/07 06:49:16;;;;;;;;;17.00;13.00;;;;;14.70;63.86;102228.28;5033468;28;46339;-40
2023/10/07 06:51:41;;;;;;;;;18.33;14.00;;;;;14.79;64.00;102223.09;5033551;28;45249;-42
2023/10/07 06:54:07;;;;;;;;;22.67;17.33;;;;;14.85;63.56;102225.22;5033717;28;45396;-41
2023/10/07 06:56:34;;;;;;;;;20.67;15.33;;;;;14.88;63.50;102225.81;5033838;28;45418;-40
2023/10/07 06:59:03;;;;;;;;;23.67;15.67;;;;;14.93;63.21;102218.19;5033571;28;46213;-41
2023/10/07 07:01:46;;;;;;;;;14.00;14.00;;;;;14.93;63.34;102217.34;5033561;28;45493;-42
2023/10/07 07:04:14;;;;;;;;;17.00;16.33;;;;;14.96;62.97;102225.97;5033423;28;45355;-41
2023/10/07 07:06:44;;;;;;;;;20.33;14.33;;;;;14.96;62.91;102219.75;5033745;28;45629;-43
2023/10/07 07:09:41;;;;;;;;;16.33;16.00;;;;;14.98;62.93;102225.81;5033315;28;46077;-40
2023/10/07 07:12:03;;;;;;;;;11.67;10.33;;;;;14.93;62.87;102201.28;5034535;28;45341;-40
2023/10/07 07:14:30;;;;;;;;;18.33;14.00;;;;;15.01;62.84;102222.84;5036579;28;45391;-40
2023/10/07 07:16:56;;;;;;;;;15.33;13.67;;;;;15.04;62.76;102219.88;5036598;28;45508;-40
2023/10/07 07:19:23;;;;;;;;;18.00;15.67;;;;;15.08;62.64;102229.34;5036154;28;47049;-42
2023/10/07 07:21:49;;;;;;;;;18.00;16.00;;;;;15.14;62.74;102226.09;5035828;28;45358;-42
2023/10/07 07:24:21;;;;;;;;;19.67;14.67;;;;;15.19;62.56;102228.38;5036302;27;45248;-46
2023/10/07 07:26:51;;;;;;;;;17.00;16.00;;;;;14.78;62.27;102149.06;5036586;28;45398;-42
2023/10/07 07:29:18;;;;;;;;;17.33;13.00;;;;;15.26;62.17;102232.19;5036308;28;47273;-42
2023/10/07 07:31:46;;;;;;;;;13.67;13.00;;;;;15.31;61.91;102232.59;5035828;28;45538;-40
2023/10/07 07:34:27;;;;;;;;;11.67;11.00;;;;;15.28;62.25;102240.91;5036224;28;45387;-40
2023/10/07 07:37:05;;;;;;;;;17.33;16.33;;;;;15.32;62.26;102244.16;5019622;28;45657;-42
2023/10/07 07:39:30;;;;;;;;;13.67;12.67;;;;;15.40;62.15;102239.78;5033570;28;46128;-41
2023/10/07 07:42:15;;;;;;;;;14.00;13.00;;;;;15.51;61.77;102244.19;5033588;28;45332;-39
2023/10/07 07:44:55;;;;;;;;;24.00;17.00;;;;;15.63;61.43;102245.72;5035415;27;45642;-41
2023/10/07 07:47:21;;;;;;;;;18.33;15.67;;;;;15.75;61.14;102248.25;5036319;27;45471;-41
2023/10/07 07:49:47;;;;;;;;;13.33;13.33;;;;;15.86;61.05;102253.47;5035982;28;46519;-44
2023/10/07 07:52:15;;;;;;;;;18.67;13.33;;;;;16.00;60.86;102263.75;5035991;28;45429;-40
2023/10/07 07:54:41;;;;;;;;;15.00;12.00;;;;;16.11;60.62;102266.25;5036400;27;45302;-41
2023/10/07 07:57:08;;;;;;;;;19.00;13.33;;;;;16.15;60.26;102256.91;5036498;28;45463;-40
2023/10/07 07:59:33;;;;;;;;;22.67;15.67;;;;;16.27;60.13;102264.81;5036027;27;46992;-41
2023/10/07 08:02:11;;;;;;;;;17.67;13.67;;;;;16.36;59.90;102271.97;5035911;28;45395;-41
2023/10/07 08:04:38;;;;;;;;;23.33;17.67;;;;;16.51;60.00;102264.25;5036552;27;45391;-43
2023/10/07 08:07:18;;;;;;;;;15.33;14.00;;;;;16.65;59.32;102278.06;5036169;28;45308;-40
2023/10/07 08:09:50;;;;;;;;;15.00;15.00;;;;;16.82;58.87;102275.59;5036880;27;45410;-40
2023/10/07 08:12:58;;;;;;;;;22.33;17.67;;;;;17.02;58.33;102277.16;5018128;27;45526;-43
2023/10/07 08:15:23;;;;;;;;;20.00;15.67;;;;;17.25;57.95;102282.13;5037790;28;45543;-42
2023/10/07 08:17:52;;;;;;;;;30.67;18.00;;;;;17.63;56.63;102287.16;5036060;28;45373;-42
2023/10/07 08:20:37;;;;;;;;;18.33;15.67;;;;;18.35;55.53;102274.41;5035386;27;45508;-43
2023/10/07 08:23:07;;;;;;;;;14.67;14.00;;;;;19.16;53.66;102289.19;5035076;28;45447;-43
2023/10/07 08:25:46;;;;;;;;;19.00;18.00;;;;;19.69;52.06;102286.09;5035828;28;45478;-40
2023/10/07 08:31:06;;;;;;;;;23.33;19.67;;;;;20.65;50.34;102284.38;4993521;28;45425;-42
2023/10/07 08:33:33;;;;;;;;;22.67;18.67;;;;;20.86;49.18;102286.50;4994704;28;45354;-43
2023/10/07 08:35:58;;;;;;;;;18.67;18.00;;;;;21.07;49.65;102286.69;4993443;28;45489;-40
2023/10/07 08:38:29;;;;;;;;;25.00;23.00;;;;;21.36;48.06;102283.31;4993825;28;45443;-42
2023/10/07 08:41:07;;;;;;;;;24.33;22.00;;;;;21.73;48.30;102294.34;4993404;28;46542;-43
2023/10/07 08:44:00;;;;;;;;;26.00;19.25;;;;;21.84;47.14;102264.97;4993387;28;45396;-44
2023/10/07 08:46:28;;;;;;;;;18.75;15.25;;;;;22.22;46.45;102269.53;4994466;28;45285;-43
2023/10/07 08:49:06;;;;;;;;;26.50;19.00;;;;;22.73;46.28;102288.56;4993600;28;45477;-45
2023/10/07 08:51:40;;;;;;;;;17.00;14.75;;;;;23.15;45.20;102285.13;4993138;28;46195;-41
2023/10/07 08:54:10;;;;;;;;;21.50;18.75;;;;;23.46;44.54;102282.06;4993287;28;45430;-41
2023/10/07 08:56:37;;;;;;;;;24.50;16.00;;;;;23.79;44.06;102284.28;4993462;28;45359;-43
2023/10/07 08:59:12;;;;;;;;;23.00;18.75;;;;;24.06;43.29;102291.59;4994186;28;45355;-43
2023/10/07 09:01:41;;;;;;;;;22.75;16.75;;;;;24.41;43.39;102313.41;4993347;28;45697;-42
2023/10/07 09:04:07;;;;;;;;;17.25;15.50;;;;;24.59;42.20;102294.66;4993225;28;45591;-41
2023/10/07 09:06:36;;;;;;;;;20.75;18.50;;;;;24.52;42.21;102290.22;4993362;28;45469;-41
2023/10/07 09:09:07;;;;;;;;;15.00;15.00;;;;;24.83;42.37;102290.56;5031239;28;45380;-41
2023/10/07 09:11:39;;;;;;;;;20.50;15.00;;;;;24.97;40.78;102294.19;5035317;27;46099;-41
2023/10/07 09:14:11;;;;;;;;;19.20;14.80;;;;;24.92;41.46;102302.13;5035136;28;45325;-40
2023/10/07 09:16:38;;;;;;;;;13.00;12.60;;;;;24.96;40.95;102305.28;5035331;27;45295;-43
2023/10/07 09:19:10;;;;;;;;;20.00;18.25;;;;;25.27;40.85;102293.84;5035380;28;45574;-42
2023/10/07 09:21:37;;;;;;;;;17.60;15.20;;;;;25.63;41.70;102277.97;5034554;27;46306;-41
2023/10/07 09:24:03;;;;;;;;;15.80;15.40;;;;;25.94;39.94;102289.31;5035091;28;45408;-44
2023/10/07 09:26:36;;;;;;;;;12.80;12.00;;;;;25.95;39.41;102288.25;5035152;27;45353;-45
2023/10/07 09:29:15;;;;;;;;;17.00;16.25;;;;;26.25;39.79;102281.28;5035245;28;45242;-41
2023/10/07 09:31:45;;;;;;;;;18.20;15.40;;;;;26.50;39.17;102286.91;5035130;28;46176;-42
2023/10/07 09:34:24;;;;;;;;;17.80;15.20;;;;;26.69;39.95;102289.78;5035397;27;45342;-44
2023/10/07 09:36:53;;;;;;;;;17.40;15.60;;;;;26.87;38.58;102285.28;5035338;27;45418;-43
2023/10/07 09:39:34;;;;;;;;;17.80;16.00;;;;;27.12;38.32;102281.81;5035361;27;45500;-42
2023/10/07 09:42:04;;;;;;;;;23.80;17.00;;;;;27.25;38.26;102289.06;5034993;28;45315;-40
2023/10/07 09:44:31;;;;;;;;;15.20;14.60;;;;;27.42;37.67;102282.00;5035066;27;45335;-41
2023/10/07 09:47:03;;;;;;;;;20.00;17.80;;;;;27.60;37.88;102293.03;5035055;27;45235;-45
2023/10/07 09:49:30;;;;;;;;;19.80;16.80;;;;;27.82;37.48;102284.47;5017147;27;45337;-43
2023/10/07 09:52:17;;;;;;;;;21.40;16.40;;;;;27.81;37.04;102272.69;5035379;27;45493;-43
2023/10/07 09:55:23;;;;;;;;;20.20;18.80;;;;;28.15;36.66;102286.03;5034979;27;45357;-42
2023/10/07 09:57:58;;;;;;;;;19.00;15.20;;;;;28.39;36.50;102298.84;5034650;28;45472;-46
2023/10/07 10:00:40;;;;;;;;;14.60;11.80;;;;;28.58;36.49;102289.56;5035055;28;45530;-45
2023/10/07 10:03:33;;;;;;;;;16.00;12.80;;;;;28.61;36.68;102293.72;5034730;27;45286;-44
2023/10/07 10:06:33;;;;;;;;;14.00;13.00;;;;;28.76;36.08;102298.81;5034533;28;45312;-45
2023/10/07 10:09:08;;;;;;;;;15.80;12.20;;;;;28.95;35.89;102299.59;5034808;27;45277;-44
2023/10/07 10:16:48;;;;;;;;;12.40;11.00;;;;;29.54;36.14;102297.94;5034516;28;45378;-46
2023/10/07 10:19:49;;;;;;;;;11.00;9.80;;;;;29.86;34.98;102282.00;5034612;28;45356;-43
2023/10/07 10:22:24;;;;;;;;;12.20;10.40;;;;;30.35;34.41;102284.50;5034884;28;45497;-44
2023/10/07 10:24:59;;;;;;;;;12.60;11.80;;;;;30.74;32.99;102280.94;5034670;28;46931;-42
2023/10/07 10:27:26;;;;;;;;;11.60;10.20;;;;;31.06;32.74;102278.53;5034712;28;45349;-45
2023/10/07 10:30:04;;;;;;;;;10.80;10.80;;;;;31.48;32.44;102283.72;5034893;28;45503;-41
2023/10/07 10:32:34;;;;;;;;;16.00;10.20;;;;;31.93;31.63;102273.69;5034812;28;45498;-43
2023/10/07 10:35:03;;;;;;;;;12.80;10.80;;;;;32.39;30.73;102282.59;5034484;28;47473;-46
2023/10/07 10:37:30;;;;;;;;;12.20;10.00;;;;;32.83;31.24;102279.78;5034238;28;45400;-45
2023/10/07 10:39:57;;;;;;;;;11.80;10.00;;;;;33.19;30.03;102279.09;5034606;28;45584;-42
2023/10/07 10:42:22;;;;;;;;;11.00;9.60;;;;;33.53;29.85;102281.63;5034892;28;45436;-44
2023/10/07 10:44:48;;;;;;;;;10.50;9.25;;;;;33.92;27.86;102259.25;5034343;28;45422;-44
2023/10/07 10:47:18;;;;;;;;;9.00;9.00;;;;;34.22;29.13;102262.22;5034011;28;45452;-43
2023/10/07 10:49:44;;;;;;;;;12.40;10.40;;;;;34.70;27.75;102267.66;5034673;28;45269;-43
2023/10/07 10:52:11;;;;;;;;;9.20;7.00;;;;;35.31;26.92;102265.00;5034496;28;45437;-44
2023/10/07 10:54:36;;;;;;;;;10.20;9.00;;;;;36.05;26.32;102269.09;5018075;28;46194;-47
2023/10/07 10:57:05;;;;;;;;;6.50;6.25;;;;;36.87;25.15;102264.00;5034257;28;45467;-46
2023/10/07 10:59:42;;;;;;;;;9.60;7.80;;;;;37.97;24.06;102264.47;5033755;27;45440;-45
2023/10/07 11:02:11;;;;;;;;;8.00;7.40;;;;;39.06;22.60;102255.19;5034008;27;45725;-47
2023/10/07 11:04:38;;;;;;;;;7.80;7.00;;;;;39.99;21.49;102258.03;5033685;27;47062;-45
2023/10/07 11:07:07;;;;;;;;;11.20;11.00;;;;;40.81;21.41;102261.81;5033503;28;45369;-47
2023/10/07 11:09:38;;;;;;;;;7.00;6.00;;;;;41.41;19.80;102255.06;5033934;28;45322;-47
2023/10/07 11:12:16;;;;;;;;;7.60;6.20;;;;;42.07;19.07;102256.84;5033341;28;45286;-45
2023/10/07 11:14:43;;;;;;;;;7.20;4.00;;;;;42.72;18.85;102257.97;5033746;27;45274;-45
2023/10/07 11:17:09;;;;;;;;;8.00;6.00;;;;;43.11;18.45;102250.56;5033961;27;45268;-46
2023/10/07 11:19:40;;;;;;;;;6.00;6.00;;;;;43.53;18.44;102250.78;5033915;27;45268;-44
2023/10/07 11:22:07;;;;;;;;;4.60;3.80;;;;;43.86;17.50;102242.56;5033385;27;45539;-44
2023/10/07 11:24:35;;;;;;;;;6.00;5.80;;;;;44.10;17.61;102241.13;5034466;27;45500;-42
2023/10/07 11:27:02;;;;;;;;;4.00;4.00;;;;;44.44;19.32;102243.69;5033513;27;45282;-44
2023/10/07 11:29:30;;;;;;;;;4.40;4.00;;;;;44.70;17.38;102242.69;5033741;28;45381;-41
2023/10/07 11:32:02;;;;;;;;;4.80;3.00;;;;;44.92;17.06;102235.88;5033882;27;45451;-42
2023/10/07 11:34:33;;;;;;;;;3.60;3.20;;;;;45.14;16.31;102234.69;5014905;28;46842;-42
2023/10/07 11:37:22;;;;;;;;;4.80;3.80;;;;;45.27;15.91;102233.53;5033450;28;45382;-47
2023/10/07 11:39:47;;;;;;;;;6.40;5.40;;;;;45.38;16.10;102229.09;5033489;27;45294;-42
2023/10/07 11:42:21;;;;;;;;;8.75;7.00;;;;;45.52;16.22;102218.38;5033618;28;45465;-43
2023/10/07 11:44:54;;;;;;;;;3.80;3.80;;;;;45.52;16.39;102229.63;5033033;27;46839;-40
2023/10/07 11:47:20;;;;;;;;;7.00;6.00;;;;;45.55;15.82;102225.28;5033214;28;45286;-39
2023/10/07 11:49:47;;;;;;;;;4.80;4.80;;;;;45.45;16.05;102228.56;5033507;27;45337;-41
2023/10/07 11:52:13;;;;;;;;;6.00;6.00;;;;;45.72;15.73;102221.41;5033688;27;45223;-40
2023/10/07 11:54:39;;;;;;;;;9.40;6.20;;;;;46.02;15.01;102217.22;5032983;28;46128;-41
2023/10/07 11:57:05;;;;;;;;;6.00;4.40;;;;;45.97;15.41;102216.59;5033305;28;45420;-41
2023/10/07 11:59:34;;;;;;;;;5.60;5.40;;;;;45.80;15.67;102217.69;5035465;28;45382;-43
2023/10/07 12:02:09;;;;;;;;;5.80;4.20;;;;;46.04;14.93;102214.84;5036647;27;45368;-42
2023/10/07 12:04:38;;;;;;;;;3.00;3.00;;;;;46.10;14.85;102223.03;5036197;28;46362;-44
2023/10/07 12:07:05;;;;;;;;;4.00;4.00;;;;;46.16;15.20;102222.44;5018308;27;45493;-42
2023/10/07 12:09:30;;;;;;;;;6.80;3.80;;;;;46.10;14.95;102223.84;5036250;28;45251;-45
2023/10/07 12:11:58;;;;;;;;;3.75;2.50;;;;;46.02;15.07;102220.03;5036732;28;45536;-42
2023/10/07 12:14:27;;;;;;;;;6.00;4.20;;;;;45.93;15.29;102236.19;5036054;28;46393;-40